sensor_id;sensor_type;location;lat;lon;timestamp;pressure;altitude;pressure_sealevel;temperature;humidity
6851;BME280;3464;42.728;23.296;2023-08-07T00:01:00;94703.23;;;26.63;48.18
6851;BME280;3464;42.728;23.296;2023-08-07T00:03:26;94697.69;;;27.73;45.81
6851;BME280;3464;42.728;23.296;2023-08-07T00:05:53;94697.20;;;27.94;45.37
6851;BME280;3464;42.728;23.296;2023-08-07T00:08:19;94696.19;;;27.76;45.33
6851;BME280;3464;42.728;23.296;2023-08-07T00:10:46;94702.39;;;27.55;45.96
6851;BME280;3464;42.728;23.296;2023-08-07T00:13:12;94707.74;;;27.19;46.73
6851;BME280;3464;42.728;23.296;2023-08-07T00:15:39;94705.70;;;27.44;46.09
6851;BME280;3464;42.728;23.296;2023-08-07T00:18:06;94706.17;;;27.37;46.23
6851;BME280;3464;42.728;23.296;2023-08-07T00:20:32;94716.30;;;27.98;45.28
6851;BME280;3464;42.728;23.296;2023-08-07T00:22:59;94718.45;;;28.35;44.28
6851;BME280;3464;42.728;23.296;2023-08-07T00:25:25;94712.55;;;27.77;45.47
6851;BME280;3464;42.728;23.296;2023-08-07T00:27:52;94708.47;;;27.54;45.04
6851;BME280;3464;42.728;23.296;2023-08-07T00:30:19;94711.07;;;27.60;45.13
6851;BME280;3464;42.728;23.296;2023-08-07T00:32:46;94716.53;;;26.90;46.50
6851;BME280;3464;42.728;23.296;2023-08-07T00:35:13;94709.00;;;28.04;44.93
6851;BME280;3464;42.728;23.296;2023-08-07T00:37:39;94708.42;;;27.09;47.12
6851;BME280;3464;42.728;23.296;2023-08-07T00:40:07;94714.76;;;26.64;47.98
6851;BME280;3464;42.728;23.296;2023-08-07T00:42:33;94714.97;;;26.53;48.48
6851;BME280;3464;42.728;23.296;2023-08-07T00:45:00;94708.38;;;26.14;49.26
6851;BME280;3464;42.728;23.296;2023-08-07T00:47:28;94708.22;;;26.17;49.25
6851;BME280;3464;42.728;23.296;2023-08-07T00:49:54;94709.71;;;26.00;50.13
6851;BME280;3464;42.728;23.296;2023-08-07T00:52:20;94704.67;;;25.97;50.31
6851;BME280;3464;42.728;23.296;2023-08-07T00:54:47;94709.71;;;25.78;50.21
6851;BME280;3464;42.728;23.296;2023-08-07T00:57:13;94713.63;;;26.61;48.70
6851;BME280;3464;42.728;23.296;2023-08-07T00:59:41;94713.28;;;26.46;48.63
6851;BME280;3464;42.728;23.296;2023-08-07T01:02:08;94718.49;;;26.80;47.86
6851;BME280;3464;42.728;23.296;2023-08-07T01:04:34;94720.66;;;26.93;47.54
6851;BME280;3464;42.728;23.296;2023-08-07T01:07:00;94722.53;;;26.84;47.50
6851;BME280;3464;42.728;23.296;2023-08-07T01:09:27;94735.81;;;26.71;47.68
6851;BME280;3464;42.728;23.296;2023-08-07T01:11:58;94743.95;;;27.12;47.05
6851;BME280;3464;42.728;23.296;2023-08-07T01:14:28;94744.41;;;27.71;46.19
6851;BME280;3464;42.728;23.296;2023-08-07T01:16:58;94737.47;;;27.78;45.89
6851;BME280;3464;42.728;23.296;2023-08-07T01:19:24;94742.09;;;27.93;45.64
6851;BME280;3464;42.728;23.296;2023-08-07T01:22:03;94742.56;;;27.54;46.22
6851;BME280;3464;42.728;23.296;2023-08-07T01:24:17;94748.86;;;27.10;46.90
6851;BME280;3464;42.728;23.296;2023-08-07T01:26:43;94743.95;;;27.58;46.30
6851;BME280;3464;42.728;23.296;2023-08-07T01:29:15;94744.97;;;27.50;46.07
6851;BME280;3464;42.728;23.296;2023-08-07T01:31:39;94744.24;;;27.73;45.89
6851;BME280;3464;42.728;23.296;2023-08-07T01:34:07;94743.58;;;27.90;45.43
6851;BME280;3464;42.728;23.296;2023-08-07T01:36:33;94748.70;;;27.97;45.05
6851;BME280;3464;42.728;23.296;2023-08-07T01:39:00;94745.02;;;27.94;45.22
6851;BME280;3464;42.728;23.296;2023-08-07T01:41:27;94742.24;;;27.84;45.18
6851;BME280;3464;42.728;23.296;2023-08-07T01:43:54;94745.24;;;27.58;45.89
6851;BME280;3464;42.728;23.296;2023-08-07T01:46:21;94736.61;;;27.59;45.38
6851;BME280;3464;42.728;23.296;2023-08-07T01:48:47;94725.89;;;27.91;45.04
6851;BME280;3464;42.728;23.296;2023-08-07T01:51:14;94734.33;;;27.80;45.24
6851;BME280;3464;42.728;23.296;2023-08-07T01:53:40;94737.78;;;27.73;45.48
6851;BME280;3464;42.728;23.296;2023-08-07T01:56:07;94746.19;;;27.83;45.24
6851;BME280;3464;42.728;23.296;2023-08-07T01:58:33;94747.94;;;27.83;45.14
6851;BME280;3464;42.728;23.296;2023-08-07T02:01:00;94740.98;;;28.03;44.42
6851;BME280;3464;42.728;23.296;2023-08-07T02:03:26;94731.73;;;27.93;44.47
6851;BME280;3464;42.728;23.296;2023-08-07T02:05:53;94737.36;;;28.12;44.26
6851;BME280;3464;42.728;23.296;2023-08-07T02:08:20;94742.80;;;28.02;44.32
6851;BME280;3464;42.728;23.296;2023-08-07T02:10:46;94747.11;;;28.27;43.97
6851;BME280;3464;42.728;23.296;2023-08-07T02:13:13;94752.55;;;28.17;44.09
6851;BME280;3464;42.728;23.296;2023-08-07T02:15:39;94759.63;;;28.02;44.25
6851;BME280;3464;42.728;23.296;2023-08-07T02:18:06;94758.99;;;27.85;44.70
6851;BME280;3464;42.728;23.296;2023-08-07T02:20:32;94768.27;;;28.26;44.02
6851;BME280;3464;42.728;23.296;2023-08-07T02:22:59;94776.86;;;28.71;42.93
6851;BME280;3464;42.728;23.296;2023-08-07T02:25:27;94770.97;;;28.37;43.65
6851;BME280;3464;42.728;23.296;2023-08-07T02:27:53;94776.86;;;28.71;43.00
6851;BME280;3464;42.728;23.296;2023-08-07T02:30:20;94776.59;;;28.06;44.51
6851;BME280;3464;42.728;23.296;2023-08-07T02:32:46;94774.48;;;28.05;44.53
6851;BME280;3464;42.728;23.296;2023-08-07T02:35:13;94773.95;;;28.38;44.05
6851;BME280;3464;42.728;23.296;2023-08-07T02:37:39;94779.20;;;28.62;43.60
6851;BME280;3464;42.728;23.296;2023-08-07T02:40:06;94774.38;;;28.19;44.40
6851;BME280;3464;42.728;23.296;2023-08-07T02:42:33;94766.70;;;28.36;43.86
6851;BME280;3464;42.728;23.296;2023-08-07T02:44:59;94774.67;;;27.70;45.19
6851;BME280;3464;42.728;23.296;2023-08-07T02:47:26;94781.47;;;27.84;44.91
6851;BME280;3464;42.728;23.296;2023-08-07T02:49:53;94773.86;;;27.69;45.40
6851;BME280;3464;42.728;23.296;2023-08-07T02:52:19;94777.33;;;27.82;45.45
6851;BME280;3464;42.728;23.296;2023-08-07T02:54:46;94785.24;;;27.27;45.86
6851;BME280;3464;42.728;23.296;2023-08-07T02:57:12;94776.61;;;28.18;44.33
6851;BME280;3464;42.728;23.296;2023-08-07T02:59:39;94777.67;;;27.90;44.90
6851;BME280;3464;42.728;23.296;2023-08-07T03:02:05;94780.47;;;28.06;44.62
6851;BME280;3464;42.728;23.296;2023-08-07T03:04:32;94791.36;;;28.11;44.61
6851;BME280;3464;42.728;23.296;2023-08-07T03:06:59;94786.77;;;28.65;43.39
6851;BME280;3464;42.728;23.296;2023-08-07T03:09:25;94792.70;;;28.41;44.32
6851;BME280;3464;42.728;23.296;2023-08-07T03:11:51;94785.98;;;28.32;44.25
6851;BME280;3464;42.728;23.296;2023-08-07T03:14:18;94789.91;;;28.38;43.88
6851;BME280;3464;42.728;23.296;2023-08-07T03:16:45;94793.65;;;28.40;43.71
6851;BME280;3464;42.728;23.296;2023-08-07T03:19:12;94800.45;;;28.79;42.99
6851;BME280;3464;42.728;23.296;2023-08-07T03:21:39;94800.91;;;28.84;42.88
6851;BME280;3464;42.728;23.296;2023-08-07T03:24:07;94791.97;;;28.95;42.54
6851;BME280;3464;42.728;23.296;2023-08-07T03:26:33;94800.34;;;28.93;42.50
6851;BME280;3464;42.728;23.296;2023-08-07T03:29:01;94800.77;;;28.12;43.87
6851;BME280;3464;42.728;23.296;2023-08-07T03:31:28;94798.70;;;27.98;44.11
6851;BME280;3464;42.728;23.296;2023-08-07T03:33:54;94810.67;;;28.75;42.81
6851;BME280;3464;42.728;23.296;2023-08-07T03:36:21;94819.78;;;28.87;41.99
6851;BME280;3464;42.728;23.296;2023-08-07T03:38:47;94825.84;;;28.42;42.98
6851;BME280;3464;42.728;23.296;2023-08-07T03:41:14;94828.36;;;28.75;42.62
6851;BME280;3464;42.728;23.296;2023-08-07T03:43:41;94832.26;;;28.31;43.01
6851;BME280;3464;42.728;23.296;2023-08-07T03:46:08;94837.84;;;28.76;42.42
6851;BME280;3464;42.728;23.296;2023-08-07T03:48:34;94842.26;;;29.29;41.29
6851;BME280;3464;42.728;23.296;2023-08-07T03:51:04;94835.61;;;29.43;41.33
6851;BME280;3464;42.728;23.296;2023-08-07T03:53:30;94844.21;;;28.77;42.28
6851;BME280;3464;42.728;23.296;2023-08-07T03:55:57;94842.37;;;29.57;41.02
6851;BME280;3464;42.728;23.296;2023-08-07T03:58:23;94841.03;;;29.82;40.41
6851;BME280;3464;42.728;23.296;2023-08-07T04:00:51;94838.16;;;30.39;40.10
6851;BME280;3464;42.728;23.296;2023-08-07T04:03:19;94838.90;;;30.73;39.01
6851;BME280;3464;42.728;23.296;2023-08-07T04:05:45;94836.05;;;31.20;37.57
6851;BME280;3464;42.728;23.296;2023-08-07T04:08:11;94845.66;;;31.95;36.88
6851;BME280;3464;42.728;23.296;2023-08-07T04:10:38;94844.55;;;33.40;35.71
6851;BME280;3464;42.728;23.296;2023-08-07T04:13:04;94845.95;;;33.98;33.81
6851;BME280;3464;42.728;23.296;2023-08-07T04:15:32;94846.63;;;34.80;32.46
6851;BME280;3464;42.728;23.296;2023-08-07T04:17:58;94843.70;;;36.36;31.19
6851;BME280;3464;42.728;23.296;2023-08-07T04:20:25;94852.48;;;37.79;29.92
6851;BME280;3464;42.728;23.296;2023-08-07T04:22:52;94857.17;;;37.22;29.31
6851;BME280;3464;42.728;23.296;2023-08-07T04:25:18;94862.23;;;37.49;29.05
6851;BME280;3464;42.728;23.296;2023-08-07T04:27:45;94856.20;;;38.39;28.44
6851;BME280;3464;42.728;23.296;2023-08-07T04:30:12;94859.73;;;38.22;28.17
6851;BME280;3464;42.728;23.296;2023-08-07T04:32:39;94870.72;;;37.81;28.60
6851;BME280;3464;42.728;23.296;2023-08-07T04:35:06;94877.00;;;37.92;28.65
6851;BME280;3464;42.728;23.296;2023-08-07T04:37:33;94871.79;;;36.74;29.49
6851;BME280;3464;42.728;23.296;2023-08-07T04:40:00;94876.52;;;37.51;29.04
6851;BME280;3464;42.728;23.296;2023-08-07T04:42:26;94864.25;;;38.21;28.07
6851;BME280;3464;42.728;23.296;2023-08-07T04:44:53;94866.56;;;39.70;27.01
6851;BME280;3464;42.728;23.296;2023-08-07T04:47:20;94862.36;;;40.63;25.81
6851;BME280;3464;42.728;23.296;2023-08-07T04:49:47;94870.55;;;41.06;25.36
6851;BME280;3464;42.728;23.296;2023-08-07T04:52:14;94875.78;;;42.04;24.57
6851;BME280;3464;42.728;23.296;2023-08-07T04:54:41;94869.27;;;42.32;23.95
6851;BME280;3464;42.728;23.296;2023-08-07T04:57:07;94861.91;;;43.00;23.47
6851;BME280;3464;42.728;23.296;2023-08-07T04:59:34;94865.88;;;43.41;23.14
6851;BME280;3464;42.728;23.296;2023-08-07T05:02:01;94859.89;;;44.11;22.11
6851;BME280;3464;42.728;23.296;2023-08-07T05:04:27;94860.12;;;43.65;22.14
6851;BME280;3464;42.728;23.296;2023-08-07T05:06:54;94862.53;;;44.17;22.16
6851;BME280;3464;42.728;23.296;2023-08-07T05:09:20;94854.86;;;44.29;21.98
6851;BME280;3464;42.728;23.296;2023-08-07T05:11:47;94858.50;;;45.00;21.40
6851;BME280;3464;42.728;23.296;2023-08-07T05:14:13;94851.52;;;45.64;20.98
6851;BME280;3464;42.728;23.296;2023-08-07T05:16:40;94857.70;;;45.35;21.06
6851;BME280;3464;42.728;23.296;2023-08-07T05:19:06;94853.61;;;46.59;20.07
6851;BME280;3464;42.728;23.296;2023-08-07T05:21:35;94844.79;;;46.99;19.75
6851;BME280;3464;42.728;23.296;2023-08-07T05:24:02;94852.12;;;45.24;20.86
6851;BME280;3464;42.728;23.296;2023-08-07T05:26:28;94851.63;;;46.29;20.28
6851;BME280;3464;42.728;23.296;2023-08-07T05:28:55;94847.11;;;44.89;21.05
6851;BME280;3464;42.728;23.296;2023-08-07T05:31:21;94850.39;;;46.63;19.93
6851;BME280;3464;42.728;23.296;2023-08-07T05:33:48;94852.17;;;48.11;19.19
6851;BME280;3464;42.728;23.296;2023-08-07T05:36:15;94855.91;;;48.72;18.43
6851;BME280;3464;42.728;23.296;2023-08-07T05:38:42;94859.95;;;48.37;18.47
6851;BME280;3464;42.728;23.296;2023-08-07T05:41:09;94859.82;;;47.27;19.51
6851;BME280;3464;42.728;23.296;2023-08-07T05:43:35;94861.74;;;48.54;18.47
6851;BME280;3464;42.728;23.296;2023-08-07T05:46:03;94862.32;;;47.22;19.26
6851;BME280;3464;42.728;23.296;2023-08-07T05:48:29;94856.94;;;47.91;18.75
6851;BME280;3464;42.728;23.296;2023-08-07T05:50:56;94867.66;;;48.71;18.27
6851;BME280;3464;42.728;23.296;2023-08-07T05:53:22;94867.81;;;50.48;17.17
6851;BME280;3464;42.728;23.296;2023-08-07T05:55:49;94863.65;;;49.81;17.63
6851;BME280;3464;42.728;23.296;2023-08-07T05:58:15;94857.51;;;49.32;17.82
6851;BME280;3464;42.728;23.296;2023-08-07T06:00:42;94862.34;;;50.15;17.38
6851;BME280;3464;42.728;23.296;2023-08-07T06:03:08;94862.69;;;50.85;16.86
6851;BME280;3464;42.728;23.296;2023-08-07T06:05:35;94856.54;;;52.05;16.08
6851;BME280;3464;42.728;23.296;2023-08-07T06:08:02;94857.33;;;49.78;17.17
6851;BME280;3464;42.728;23.296;2023-08-07T06:10:28;94859.77;;;48.97;17.78
6851;BME280;3464;42.728;23.296;2023-08-07T06:12:55;94853.90;;;49.38;17.49
6851;BME280;3464;42.728;23.296;2023-08-07T06:15:21;94858.70;;;49.55;17.51
6851;BME280;3464;42.728;23.296;2023-08-07T06:17:48;94852.81;;;48.92;17.65
6851;BME280;3464;42.728;23.296;2023-08-07T06:20:15;94845.84;;;48.59;18.11
6851;BME280;3464;42.728;23.296;2023-08-07T06:22:42;94851.08;;;50.21;17.17
6851;BME280;3464;42.728;23.296;2023-08-07T06:25:09;94850.52;;;49.85;17.26
6851;BME280;3464;42.728;23.296;2023-08-07T06:27:35;94840.52;;;51.23;16.41
6851;BME280;3464;42.728;23.296;2023-08-07T06:30:02;94836.48;;;51.04;16.42
6851;BME280;3464;42.728;23.296;2023-08-07T06:32:28;94839.90;;;50.99;16.28
6851;BME280;3464;42.728;23.296;2023-08-07T06:34:55;94843.15;;;49.92;17.03
6851;BME280;3464;42.728;23.296;2023-08-07T06:37:22;94844.18;;;51.17;16.24
6851;BME280;3464;42.728;23.296;2023-08-07T06:39:48;94853.30;;;51.84;15.88
6851;BME280;3464;42.728;23.296;2023-08-07T06:42:15;94849.87;;;48.56;17.05
6851;BME280;3464;42.728;23.296;2023-08-07T06:44:41;94847.23;;;47.97;17.60
6851;BME280;3464;42.728;23.296;2023-08-07T06:47:08;94854.86;;;49.23;17.16
6851;BME280;3464;42.728;23.296;2023-08-07T06:49:34;94856.84;;;49.44;16.77
6851;BME280;3464;42.728;23.296;2023-08-07T06:52:01;94849.20;;;47.33;17.71
6851;BME280;3464;42.728;23.296;2023-08-07T06:54:27;94849.91;;;49.89;16.58
6851;BME280;3464;42.728;23.296;2023-08-07T06:56:54;94853.66;;;48.90;16.77
6851;BME280;3464;42.728;23.296;2023-08-07T06:59:20;94859.88;;;49.25;16.74
6851;BME280;3464;42.728;23.296;2023-08-07T07:01:47;94855.53;;;48.57;17.03
6851;BME280;3464;42.728;23.296;2023-08-07T07:04:13;94859.95;;;50.35;16.06
6851;BME280;3464;42.728;23.296;2023-08-07T07:06:40;94854.67;;;49.61;16.63
6851;BME280;3464;42.728;23.296;2023-08-07T07:09:06;94852.30;;;47.30;18.03
6851;BME280;3464;42.728;23.296;2023-08-07T07:11:33;94861.73;;;50.38;16.35
6851;BME280;3464;42.728;23.296;2023-08-07T07:14:00;94853.78;;;51.13;16.00
6851;BME280;3464;42.728;23.296;2023-08-07T07:16:26;94854.69;;;51.56;15.42
6851;BME280;3464;42.728;23.296;2023-08-07T07:18:53;94854.27;;;51.34;15.86
6851;BME280;3464;42.728;23.296;2023-08-07T07:21:19;94848.20;;;51.44;15.59
6851;BME280;3464;42.728;23.296;2023-08-07T07:23:46;94844.06;;;52.42;15.12
6851;BME280;3464;42.728;23.296;2023-08-07T07:26:13;94841.55;;;52.46;15.04
6851;BME280;3464;42.728;23.296;2023-08-07T07:28:39;94844.64;;;52.22;14.58
6851;BME280;3464;42.728;23.296;2023-08-07T07:31:06;94846.59;;;52.85;14.43
6851;BME280;3464;42.728;23.296;2023-08-07T07:33:32;94845.35;;;53.86;14.02
6851;BME280;3464;42.728;23.296;2023-08-07T07:35:59;94842.25;;;53.78;13.92
6851;BME280;3464;42.728;23.296;2023-08-07T07:38:26;94843.73;;;54.51;13.23
6851;BME280;3464;42.728;23.296;2023-08-07T07:40:52;94837.91;;;55.44;13.06
6851;BME280;3464;42.728;23.296;2023-08-07T07:43:19;94840.73;;;55.48;13.14
6851;BME280;3464;42.728;23.296;2023-08-07T07:45:45;94836.71;;;54.04;13.63
6851;BME280;3464;42.728;23.296;2023-08-07T07:48:12;94837.86;;;53.88;13.62
6851;BME280;3464;42.728;23.296;2023-08-07T07:50:38;94840.98;;;53.41;14.03
6851;BME280;3464;42.728;23.296;2023-08-07T07:53:05;94848.45;;;53.13;13.65
6851;BME280;3464;42.728;23.296;2023-08-07T07:55:31;94846.89;;;50.94;14.20
6851;BME280;3464;42.728;23.296;2023-08-07T07:57:58;94838.66;;;50.98;14.04
6851;BME280;3464;42.728;23.296;2023-08-07T08:00:24;94836.02;;;47.97;15.89
6851;BME280;3464;42.728;23.296;2023-08-07T08:02:52;94836.52;;;44.83;18.72
6851;BME280;3464;42.728;23.296;2023-08-07T08:05:19;94827.97;;;41.95;20.15
6851;BME280;3464;42.728;23.296;2023-08-07T08:07:45;94825.28;;;40.87;21.13
6851;BME280;3464;42.728;23.296;2023-08-07T08:10:12;94828.75;;;40.05;21.55
6851;BME280;3464;42.728;23.296;2023-08-07T08:12:39;94839.28;;;38.17;23.48
6851;BME280;3464;42.728;23.296;2023-08-07T08:15:07;94835.81;;;37.76;23.78
6851;BME280;3464;42.728;23.296;2023-08-07T08:17:33;94838.64;;;37.41;23.86
6851;BME280;3464;42.728;23.296;2023-08-07T08:20:00;94839.31;;;37.22;24.62
6851;BME280;3464;42.728;23.296;2023-08-07T08:22:26;94835.19;;;37.10;24.47
6851;BME280;3464;42.728;23.296;2023-08-07T08:24:55;94829.03;;;37.23;24.06
6851;BME280;3464;42.728;23.296;2023-08-07T08:27:21;94833.42;;;34.77;26.37
6851;BME280;3464;42.728;23.296;2023-08-07T08:29:48;94831.26;;;35.09;26.71
6851;BME280;3464;42.728;23.296;2023-08-07T08:32:15;94821.50;;;36.17;25.95
6851;BME280;3464;42.728;23.296;2023-08-07T08:34:42;94815.90;;;36.73;24.63
6851;BME280;3464;42.728;23.296;2023-08-07T08:37:10;94816.45;;;35.71;25.51
6851;BME280;3464;42.728;23.296;2023-08-07T08:39:36;94813.72;;;35.77;26.09
6851;BME280;3464;42.728;23.296;2023-08-07T08:42:04;94821.11;;;34.96;26.34
6851;BME280;3464;42.728;23.296;2023-08-07T08:44:31;94813.73;;;36.38;25.32
6851;BME280;3464;42.728;23.296;2023-08-07T08:46:58;94808.30;;;35.43;26.31
6851;BME280;3464;42.728;23.296;2023-08-07T08:49:26;94812.03;;;36.20;25.67
6851;BME280;3464;42.728;23.296;2023-08-07T08:51:50;94802.90;;;36.07;25.43
6851;BME280;3464;42.728;23.296;2023-08-07T08:54:17;94816.07;;;35.49;26.66
6851;BME280;3464;42.728;23.296;2023-08-07T08:56:43;94817.92;;;33.95;27.92
6851;BME280;3464;42.728;23.296;2023-08-07T08:59:10;94810.59;;;34.69;27.27
6851;BME280;3464;42.728;23.296;2023-08-07T09:01:37;94804.84;;;34.04;28.50
6851;BME280;3464;42.728;23.296;2023-08-07T09:04:04;94809.77;;;34.36;27.25
6851;BME280;3464;42.728;23.296;2023-08-07T09:06:31;94808.06;;;34.77;26.78
6851;BME280;3464;42.728;23.296;2023-08-07T09:08:58;94816.48;;;33.62;28.66
6851;BME280;3464;42.728;23.296;2023-08-07T09:11:27;94808.34;;;34.14;28.69
6851;BME280;3464;42.728;23.296;2023-08-07T09:13:54;94806.14;;;34.84;27.87
6851;BME280;3464;42.728;23.296;2023-08-07T09:16:21;94807.27;;;35.54;27.04
6851;BME280;3464;42.728;23.296;2023-08-07T09:18:47;94808.00;;;33.25;28.50
6851;BME280;3464;42.728;23.296;2023-08-07T09:21:14;94804.83;;;33.22;28.70
6851;BME280;3464;42.728;23.296;2023-08-07T09:23:41;94797.52;;;32.00;30.25
6851;BME280;3464;42.728;23.296;2023-08-07T09:26:09;94778.53;;;34.44;28.03
6851;BME280;3464;42.728;23.296;2023-08-07T09:28:35;94791.53;;;34.73;27.29
6851;BME280;3464;42.728;23.296;2023-08-07T09:31:02;94791.01;;;32.60;29.34
6851;BME280;3464;42.728;23.296;2023-08-07T09:33:29;94783.03;;;31.81;29.86
6851;BME280;3464;42.728;23.296;2023-08-07T09:35:58;94793.67;;;33.69;28.69
6851;BME280;3464;42.728;23.296;2023-08-07T09:38:27;94794.42;;;33.70;28.27
6851;BME280;3464;42.728;23.296;2023-08-07T09:40:51;94789.30;;;33.74;28.20
6851;BME280;3464;42.728;23.296;2023-08-07T09:43:21;94781.48;;;34.31;27.48
6851;BME280;3464;42.728;23.296;2023-08-07T09:45:47;94776.97;;;35.24;26.07
6851;BME280;3464;42.728;23.296;2023-08-07T09:48:14;94776.23;;;35.41;26.56
6851;BME280;3464;42.728;23.296;2023-08-07T09:50:42;94772.70;;;35.01;26.77
6851;BME280;3464;42.728;23.296;2023-08-07T09:53:09;94779.52;;;34.10;27.86
6851;BME280;3464;42.728;23.296;2023-08-07T09:55:36;94778.91;;;34.77;26.61
6851;BME280;3464;42.728;23.296;2023-08-07T09:58:03;94779.56;;;34.93;26.18
6851;BME280;3464;42.728;23.296;2023-08-07T10:00:33;94774.97;;;35.40;25.80
6851;BME280;3464;42.728;23.296;2023-08-07T10:03:01;94774.55;;;35.71;27.06
6851;BME280;3464;42.728;23.296;2023-08-07T10:05:27;94776.39;;;35.88;26.43
6851;BME280;3464;42.728;23.296;2023-08-07T10:07:54;94775.34;;;36.42;25.84
6851;BME280;3464;42.728;23.296;2023-08-07T10:10:21;94786.87;;;35.35;26.34
6851;BME280;3464;42.728;23.296;2023-08-07T10:12:48;94780.06;;;35.99;25.61
6851;BME280;3464;42.728;23.296;2023-08-07T10:15:16;94787.39;;;36.05;25.93
6851;BME280;3464;42.728;23.296;2023-08-07T10:17:45;94781.17;;;36.02;25.52
6851;BME280;3464;42.728;23.296;2023-08-07T10:20:12;94782.25;;;35.73;25.89
6851;BME280;3464;42.728;23.296;2023-08-07T10:22:40;94774.17;;;36.19;25.38
6851;BME280;3464;42.728;23.296;2023-08-07T10:25:08;94778.76;;;33.70;27.76
6851;BME280;3464;42.728;23.296;2023-08-07T10:27:36;94767.92;;;33.94;28.31
6851;BME280;3464;42.728;23.296;2023-08-07T10:30:02;94769.63;;;34.92;27.97
6851;BME280;3464;42.728;23.296;2023-08-07T10:32:29;94783.12;;;34.74;27.62
6851;BME280;3464;42.728;23.296;2023-08-07T10:34:55;94780.75;;;34.76;27.50
6851;BME280;3464;42.728;23.296;2023-08-07T10:37:38;94774.91;;;34.27;28.27
6851;BME280;3464;42.728;23.296;2023-08-07T10:40:05;94770.09;;;34.36;28.11
6851;BME280;3464;42.728;23.296;2023-08-07T10:42:49;94760.59;;;35.13;27.00
6851;BME280;3464;42.728;23.296;2023-08-07T10:45:01;94774.91;;;34.73;27.55
6851;BME280;3464;42.728;23.296;2023-08-07T10:47:35;94766.95;;;35.56;26.06
6851;BME280;3464;42.728;23.296;2023-08-07T10:50:02;94750.52;;;35.41;26.29
6851;BME280;3464;42.728;23.296;2023-08-07T10:52:30;94749.51;;;34.00;28.00
6851;BME280;3464;42.728;23.296;2023-08-07T10:54:57;94742.52;;;34.70;28.31
6851;BME280;3464;42.728;23.296;2023-08-07T10:57:25;94739.33;;;34.85;27.44
6851;BME280;3464;42.728;23.296;2023-08-07T10:59:51;94735.73;;;34.45;27.94
6851;BME280;3464;42.728;23.296;2023-08-07T11:02:24;94746.67;;;34.99;27.12
6851;BME280;3464;42.728;23.296;2023-08-07T11:04:52;94746.62;;;35.85;26.59
6851;BME280;3464;42.728;23.296;2023-08-07T11:07:25;94735.14;;;33.85;28.23
6851;BME280;3464;42.728;23.296;2023-08-07T11:09:51;94737.86;;;34.50;27.45
6851;BME280;3464;42.728;23.296;2023-08-07T11:12:18;94726.14;;;33.99;28.11
6851;BME280;3464;42.728;23.296;2023-08-07T11:14:47;94724.66;;;34.88;27.65
6851;BME280;3464;42.728;23.296;2023-08-07T11:17:16;94716.77;;;35.73;26.70
6851;BME280;3464;42.728;23.296;2023-08-07T11:19:43;94710.21;;;35.07;27.27
6851;BME280;3464;42.728;23.296;2023-08-07T11:22:10;94722.72;;;35.84;26.58
6851;BME280;3464;42.728;23.296;2023-08-07T11:24:37;94711.34;;;35.40;27.11
6851;BME280;3464;42.728;23.296;2023-08-07T11:27:04;94711.87;;;36.34;25.87
6851;BME280;3464;42.728;23.296;2023-08-07T11:29:32;94711.97;;;36.55;25.49
6851;BME280;3464;42.728;23.296;2023-08-07T11:31:59;94714.80;;;36.87;25.56
6851;BME280;3464;42.728;23.296;2023-08-07T11:34:25;94709.67;;;36.13;25.73
6851;BME280;3464;42.728;23.296;2023-08-07T11:36:52;94715.70;;;34.86;27.30
6851;BME280;3464;42.728;23.296;2023-08-07T11:39:18;94714.11;;;36.04;25.95
6851;BME280;3464;42.728;23.296;2023-08-07T11:41:45;94706.19;;;33.36;29.48
6851;BME280;3464;42.728;23.296;2023-08-07T11:44:11;94706.56;;;35.17;27.61
6851;BME280;3464;42.728;23.296;2023-08-07T11:46:38;94711.23;;;36.79;26.14
6851;BME280;3464;42.728;23.296;2023-08-07T11:49:04;94704.39;;;37.48;25.31
6851;BME280;3464;42.728;23.296;2023-08-07T11:51:33;94699.50;;;36.65;25.63
6851;BME280;3464;42.728;23.296;2023-08-07T11:54:16;94700.78;;;36.45;25.83
6851;BME280;3464;42.728;23.296;2023-08-07T11:56:42;94702.72;;;37.99;24.57
6851;BME280;3464;42.728;23.296;2023-08-07T11:59:10;94704.14;;;35.86;26.88
6851;BME280;3464;42.728;23.296;2023-08-07T12:01:38;94702.52;;;36.91;26.34
6851;BME280;3464;42.728;23.296;2023-08-07T12:04:09;94703.01;;;37.48;25.35
6851;BME280;3464;42.728;23.296;2023-08-07T12:06:37;94690.22;;;39.23;23.79
6851;BME280;3464;42.728;23.296;2023-08-07T12:09:07;94686.23;;;39.11;23.96
6851;BME280;3464;42.728;23.296;2023-08-07T12:11:35;94691.07;;;40.09;23.18
6851;BME280;3464;42.728;23.296;2023-08-07T12:14:01;94692.07;;;38.95;24.42
6851;BME280;3464;42.728;23.296;2023-08-07T12:16:31;94689.42;;;38.44;24.95
6851;BME280;3464;42.728;23.296;2023-08-07T12:18:54;94684.16;;;38.80;24.71
6851;BME280;3464;42.728;23.296;2023-08-07T12:21:21;94685.54;;;37.19;26.02
6851;BME280;3464;42.728;23.296;2023-08-07T12:23:47;94679.66;;;39.65;23.92
6851;BME280;3464;42.728;23.296;2023-08-07T12:26:14;94686.55;;;40.11;23.60
6851;BME280;3464;42.728;23.296;2023-08-07T12:28:41;94677.01;;;39.76;23.60
6851;BME280;3464;42.728;23.296;2023-08-07T12:31:10;94675.60;;;40.18;23.68
6851;BME280;3464;42.728;23.296;2023-08-07T12:33:36;94682.08;;;41.35;22.74
6851;BME280;3464;42.728;23.296;2023-08-07T12:36:03;94682.31;;;40.39;23.21
6851;BME280;3464;42.728;23.296;2023-08-07T12:38:30;94681.87;;;39.98;24.06
6851;BME280;3464;42.728;23.296;2023-08-07T12:40:56;94685.41;;;40.02;24.16
6851;BME280;3464;42.728;23.296;2023-08-07T12:43:23;94693.28;;;38.61;24.78
6851;BME280;3464;42.728;23.296;2023-08-07T12:45:49;94695.05;;;38.96;25.18
6851;BME280;3464;42.728;23.296;2023-08-07T12:48:16;94694.75;;;37.92;25.53
6851;BME280;3464;42.728;23.296;2023-08-07T12:50:43;94700.58;;;36.51;27.70
6851;BME280;3464;42.728;23.296;2023-08-07T12:53:09;94695.00;;;38.45;25.82
6851;BME280;3464;42.728;23.296;2023-08-07T12:55:36;94701.04;;;39.28;25.03
6851;BME280;3464;42.728;23.296;2023-08-07T12:58:03;94693.52;;;37.71;26.72
6851;BME280;3464;42.728;23.296;2023-08-07T13:00:30;94698.60;;;37.24;26.96
6851;BME280;3464;42.728;23.296;2023-08-07T13:03:04;94692.86;;;37.69;26.72
6851;BME280;3464;42.728;23.296;2023-08-07T13:05:31;94694.27;;;38.13;26.29
6851;BME280;3464;42.728;23.296;2023-08-07T13:07:58;94700.36;;;37.36;26.84